Time;durP1;ratioP1;P1;durP2;ratioP2;P2;SDS_P1;SDS_P2;PMS_P1;PMS_P2;Temp;Humidity;BMP_temperature;BMP_pressure;BME280_temperature;BME280_humidity;BME280_pressure;Samples;Min_cycle;Max_cycle;Signal;HPM_P1;HPM_P2
2023/04/13 00:01:10;;;;;;;1.23;0.70;;;21.10;68.40;;;;;;5022019;28;20192;-61
2023/04/13 00:03:38;;;;;;;1.27;0.80;;;21.00;68.20;;;;;;5012165;28;20196;-63
2023/04/13 00:06:09;;;;;;;2.13;0.80;;;21.00;68.20;;;;;;5014242;28;20224;-64
2023/04/13 00:08:38;;;;;;;1.00;0.80;;;21.00;68.30;;;;;;5010360;28;20296;-64
2023/04/13 00:11:06;;;;;;;1.20;1.05;;;21.00;68.30;;;;;;5016002;28;20202;-64
2023/04/13 00:13:41;;;;;;;2.15;0.90;;;21.00;68.20;;;;;;5014029;28;20339;-62
2023/04/13 00:16:09;;;;;;;1.55;0.90;;;21.00;68.30;;;;;;5014207;28;20202;-64
2023/04/13 00:18:38;;;;;;;1.13;0.70;;;21.00;68.20;;;;;;5012293;28;20287;-62
2023/04/13 00:21:06;;;;;;;1.40;1.00;;;21.00;68.30;;;;;;5009580;28;20479;-63
2023/04/13 00:23:34;;;;;;;3.60;0.90;;;21.00;68.30;;;;;;5019719;28;20221;-64
2023/04/13 00:26:01;;;;;;;2.17;0.80;;;21.00;68.40;;;;;;5013751;28;20251;-58
2023/04/13 00:28:28;;;;;;;2.83;0.85;;;21.00;68.30;;;;;;5004890;28;20205;-65
2023/04/13 00:30:55;;;;;;;0.95;0.70;;;21.00;68.30;;;;;;5011353;28;20197;-63
2023/04/13 00:33:22;;;;;;;1.35;0.75;;;21.00;68.30;;;;;;5020458;28;20202;-57
2023/04/13 00:35:50;;;;;;;1.00;0.77;;;20.90;68.20;;;;;;5019676;28;20211;-64
2023/04/13 00:38:17;;;;;;;1.40;0.90;;;20.90;68.20;;;;;;5015499;28;20209;-65
2023/04/13 00:40:43;;;;;;;0.80;0.68;;;20.90;68.20;;;;;;5018746;28;20209;-62
2023/04/13 00:43:10;;;;;;;0.80;0.70;;;21.00;68.20;;;;;;5019133;28;20218;-63
2023/04/13 00:45:37;;;;;;;1.00;0.80;;;20.90;68.20;;;;;;5012234;28;20567;-64
2023/04/13 00:48:05;;;;;;;1.05;0.70;;;20.90;68.20;;;;;;5018288;28;20283;-64
2023/04/13 00:50:33;;;;;;;1.10;0.80;;;20.90;68.20;;;;;;5016359;28;20196;-63
2023/04/13 00:53:02;;;;;;;2.50;1.17;;;20.90;68.20;;;;;;5015928;28;20189;-64
2023/04/13 00:55:29;;;;;;;1.25;0.82;;;20.90;68.20;;;;;;5013943;28;20209;-64
2023/04/13 00:57:58;;;;;;;1.85;0.80;;;20.90;68.20;;;;;;5023152;28;20203;-59
2023/04/13 01:00:25;;;;;;;0.93;0.77;;;20.90;68.20;;;;;;5013453;28;20201;-64
2023/04/13 01:02:54;;;;;;;1.00;0.80;;;20.90;68.30;;;;;;5021603;28;20746;-63
2023/04/13 01:05:21;;;;;;;1.73;0.80;;;20.80;68.20;;;;;;5007545;28;20349;-64
2023/04/13 01:07:57;;;;;;;1.02;0.70;;;20.80;68.20;;;;;;5016824;28;20265;-64
2023/04/13 01:10:30;;;;;;;0.93;0.80;;;20.80;68.20;;;;;;5013367;28;20257;-57
2023/04/13 01:13:10;;;;;;;0.90;0.70;;;20.80;68.20;;;;;;5009426;28;20201;-64
2023/04/13 01:15:39;;;;;;;1.00;0.73;;;20.80;68.20;;;;;;5016274;28;20196;-63
2023/04/13 01:18:09;;;;;;;1.40;0.80;;;20.80;68.20;;;;;;5013048;28;20201;-62
2023/04/13 01:20:39;;;;;;;1.23;0.77;;;20.90;68.30;;;;;;5009106;28;20204;-62
2023/04/13 01:23:09;;;;;;;0.88;0.68;;;20.80;68.20;;;;;;5009196;28;20228;-60
2023/04/13 01:25:49;;;;;;;1.20;0.70;;;20.80;68.10;;;;;;5017764;28;20739;-60
2023/04/13 01:28:19;;;;;;;1.20;0.88;;;20.80;68.10;;;;;;5014796;28;20200;-64
2023/04/13 01:30:47;;;;;;;1.42;0.80;;;20.80;68.10;;;;;;5013654;28;20282;-64
2023/04/13 01:33:15;;;;;;;1.50;0.90;;;20.80;68.20;;;;;;5012340;28;20272;-61
2023/04/13 01:35:42;;;;;;;0.90;0.80;;;20.80;68.20;;;;;;5007904;28;20205;-64
2023/04/13 01:38:11;;;;;;;3.92;0.90;;;20.80;68.20;;;;;;5018736;28;20195;-63
2023/04/13 01:40:40;;;;;;;1.10;0.77;;;20.80;68.20;;;;;;5018984;28;20220;-60
2023/04/13 01:43:07;;;;;;;0.90;0.70;;;20.70;68.10;;;;;;5016502;28;20715;-56
2023/04/13 01:45:44;;;;;;;0.90;0.60;;;20.80;68.20;;;;;;5014561;28;20243;-64
2023/04/13 01:48:17;;;;;;;1.00;0.77;;;20.70;68.10;;;;;;5014069;28;20200;-63
2023/04/13 01:50:45;;;;;;;1.58;0.90;;;20.70;68.10;;;;;;5017809;28;20210;-64
2023/04/13 01:53:19;;;;;;;1.77;0.75;;;20.70;68.20;;;;;;5014508;28;20201;-58
2023/04/13 01:55:48;;;;;;;1.17;0.90;;;20.70;68.20;;;;;;5011010;28;20719;-58
2023/04/13 01:58:18;;;;;;;1.73;0.75;;;20.70;68.20;;;;;;5010229;28;20691;-62
2023/04/13 02:00:46;;;;;;;1.00;0.70;;;20.70;68.20;;;;;;5015751;28;20718;-64
2023/04/13 02:03:14;;;;;;;1.40;0.70;;;20.70;69.00;;;;;;5012070;28;20196;-64
2023/04/13 02:05:41;;;;;;;1.00;0.80;;;20.70;68.30;;;;;;5012784;28;20212;-64
2023/04/13 02:08:08;;;;;;;0.90;0.60;;;20.70;68.30;;;;;;5016840;28;20688;-60
2023/04/13 02:10:36;;;;;;;1.73;0.80;;;20.70;68.20;;;;;;5022478;28;20200;-64
2023/04/13 02:13:03;;;;;;;1.00;0.70;;;20.70;68.30;;;;;;5018220;28;20196;-62
2023/04/13 02:15:30;;;;;;;1.40;0.90;;;20.70;68.20;;;;;;5012656;28;20200;-61
2023/04/13 02:17:58;;;;;;;0.90;0.70;;;20.70;68.20;;;;;;5012494;28;20193;-60
2023/04/13 02:20:25;;;;;;;0.90;0.70;;;20.70;68.10;;;;;;5015922;28;20196;-63
2023/04/13 02:22:52;;;;;;;0.90;0.70;;;20.70;68.20;;;;;;5000234;28;20223;-64
2023/04/13 02:25:18;;;;;;;0.90;0.63;;;20.70;68.20;;;;;;5013497;28;20200;-61
2023/04/13 02:27:45;;;;;;;1.20;0.80;;;20.70;68.20;;;;;;5017423;28;20200;-63
2023/04/13 02:30:12;;;;;;;0.90;0.70;;;20.60;68.00;;;;;;5004785;28;20209;-61
2023/04/13 02:32:41;;;;;;;0.90;0.60;;;20.60;68.00;;;;;;5012537;28;20263;-64
2023/04/13 02:35:10;;;;;;;1.00;0.70;;;20.70;68.10;;;;;;5018194;28;20584;-63
2023/04/13 02:37:39;;;;;;;1.10;0.80;;;20.60;68.00;;;;;;5010525;28;20289;-63
2023/04/13 02:40:09;;;;;;;1.15;0.70;;;20.60;68.10;;;;;;5008862;28;20197;-64
2023/04/13 02:42:36;;;;;;;1.00;0.70;;;20.60;68.10;;;;;;5007131;28;20741;-63
2023/04/13 02:45:04;;;;;;;0.90;0.60;;;20.60;68.10;;;;;;5013354;28;20569;-63
2023/04/13 02:47:32;;;;;;;1.00;0.70;;;20.60;68.10;;;;;;5020059;28;20290;-59
2023/04/13 02:49:59;;;;;;;1.98;0.70;;;20.60;68.10;;;;;;5007883;28;20196;-63
2023/04/13 02:52:27;;;;;;;0.90;0.70;;;20.60;68.10;;;;;;5017369;28;20657;-60
2023/04/13 02:54:54;;;;;;;1.20;0.90;;;20.60;68.10;;;;;;5018793;28;20208;-63
2023/04/13 02:57:21;;;;;;;0.90;0.70;;;20.60;68.20;;;;;;5007704;28;20201;-63
2023/04/13 02:59:47;;;;;;;1.00;0.70;;;20.60;68.10;;;;;;5007148;28;20205;-64
2023/04/13 03:02:14;;;;;;;1.10;0.85;;;20.60;68.10;;;;;;5011074;28;20201;-63
2023/04/13 03:04:41;;;;;;;1.00;0.77;;;20.60;68.00;;;;;;5013777;28;20657;-59
2023/04/13 03:07:09;;;;;;;1.17;1.08;;;20.60;68.90;;;;;;5003737;28;20217;-63
2023/04/13 03:09:38;;;;;;;1.25;0.80;;;20.60;68.10;;;;;;5027898;28;20198;-63
2023/04/13 03:12:06;;;;;;;1.00;0.73;;;20.60;68.00;;;;;;5019704;28;20201;-59
2023/04/13 03:14:33;;;;;;;1.85;0.80;;;20.60;68.00;;;;;;5015883;28;20288;-63
2023/04/13 03:17:00;;;;;;;1.38;0.73;;;20.60;68.00;;;;;;5024424;28;20196;-63
2023/04/13 03:19:27;;;;;;;1.10;0.70;;;20.60;68.00;;;;;;5023462;28;20222;-61
2023/04/13 03:21:54;;;;;;;1.10;0.90;;;20.50;67.90;;;;;;5019939;28;20332;-63
2023/04/13 03:24:20;;;;;;;1.30;0.80;;;20.50;67.90;;;;;;5015330;28;20200;-62
2023/04/13 03:26:48;;;;;;;1.10;0.80;;;20.50;67.90;;;;;;5016653;28;20293;-63
2023/04/13 03:29:15;;;;;;;1.08;0.90;;;20.50;67.90;;;;;;5025828;28;20211;-63
2023/04/13 03:31:42;;;;;;;1.00;0.77;;;20.50;68.10;;;;;;5023745;28;20197;-60
2023/04/13 03:34:08;;;;;;;1.15;0.90;;;20.50;68.10;;;;;;5019062;28;20196;-64
2023/04/13 03:36:35;;;;;;;1.00;0.70;;;20.50;68.20;;;;;;5018790;28;20196;-59
2023/04/13 03:39:04;;;;;;;2.10;0.80;;;20.50;68.30;;;;;;5022034;28;20195;-64
2023/04/13 03:41:30;;;;;;;1.33;0.80;;;20.50;68.40;;;;;;5020679;28;20203;-63
2023/04/13 03:43:58;;;;;;;1.75;0.90;;;20.50;68.30;;;;;;5015240;28;20217;-61
2023/04/13 03:46:26;;;;;;;1.60;1.23;;;20.50;68.40;;;;;;5020043;28;20707;-62
2023/04/13 03:48:52;;;;;;;1.63;0.90;;;20.50;68.40;;;;;;5016491;28;20403;-59
2023/04/13 03:51:20;;;;;;;1.00;0.82;;;20.50;68.30;;;;;;5009008;28;20204;-57
2023/04/13 03:53:47;;;;;;;1.10;0.70;;;20.50;68.40;;;;;;5019059;28;20211;-64
2023/04/13 03:56:14;;;;;;;0.98;0.80;;;20.50;68.40;;;;;;5014505;28;20203;-55
2023/04/13 03:58:41;;;;;;;1.10;0.80;;;20.50;68.20;;;;;;5006147;28;20699;-63
2023/04/13 04:01:09;;;;;;;1.05;0.80;;;20.50;68.20;;;;;;5008814;28;20223;-61
2023/04/13 04:03:37;;;;;;;0.90;0.80;;;20.50;68.30;;;;;;5014683;28;20247;-59
2023/04/13 04:06:04;;;;;;;1.10;0.70;;;20.50;68.20;;;;;;5014389;28;20309;-56
2023/04/13 04:08:31;;;;;;;1.00;0.80;;;20.40;68.10;;;;;;5010808;28;20201;-65
2023/04/13 04:10:58;;;;;;;1.30;0.80;;;20.40;68.10;;;;;;5002799;28;22422;-60
2023/04/13 04:13:25;;;;;;;1.27;0.70;;;20.40;68.10;;;;;;5018571;28;20224;-62
2023/04/13 04:15:51;;;;;;;1.10;0.90;;;20.40;68.10;;;;;;5013330;28;20205;-62
2023/04/13 04:18:19;;;;;;;1.00;0.80;;;20.40;68.10;;;;;;5015967;28;20244;-64
2023/04/13 04:20:46;;;;;;;2.40;0.90;;;20.40;68.20;;;;;;5011778;28;20208;-63
2023/04/13 04:23:14;;;;;;;0.80;0.70;;;20.40;68.20;;;;;;5016333;28;20212;-64
2023/04/13 04:25:40;;;;;;;0.90;0.70;;;20.40;68.30;;;;;;5013989;28;20205;-62
2023/04/13 04:28:07;;;;;;;1.00;0.80;;;20.40;68.30;;;;;;5019018;28;20208;-56
2023/04/13 04:30:34;;;;;;;1.10;0.98;;;20.40;68.20;;;;;;5011520;28;20204;-63
2023/04/13 04:33:01;;;;;;;1.30;0.80;;;20.40;68.20;;;;;;5022798;28;20208;-59
2023/04/13 04:35:32;;;;;;;1.10;0.70;;;20.40;68.20;;;;;;5011985;28;20201;-61
2023/04/13 04:38:02;;;;;;;0.95;0.77;;;20.40;68.20;;;;;;5007798;28;20251;-59
2023/04/13 04:40:29;;;;;;;1.30;0.82;;;20.40;68.20;;;;;;5014100;28;20218;-63
2023/04/13 04:42:56;;;;;;;0.93;0.70;;;20.40;68.20;;;;;;5014297;28;20211;-60
2023/04/13 04:45:26;;;;;;;1.10;0.80;;;20.40;68.20;;;;;;5011349;28;20545;-62
2023/04/13 04:47:56;;;;;;;0.90;0.70;;;20.40;68.10;;;;;;5022907;28;20315;-64
2023/04/13 04:50:24;;;;;;;0.95;0.70;;;20.40;68.90;;;;;;5010696;28;20664;-63
2023/04/13 04:52:52;;;;;;;1.00;0.80;;;20.40;68.10;;;;;;5015721;28;20213;-63
2023/04/13 04:55:19;;;;;;;1.10;0.70;;;20.40;68.10;;;;;;5022534;28;20192;-64
2023/04/13 04:57:46;;;;;;;1.92;0.75;;;20.40;68.10;;;;;;5026442;28;20254;-62
2023/04/13 05:00:15;;;;;;;0.80;0.70;;;20.40;68.10;;;;;;5016449;28;20664;-61
2023/04/13 05:02:42;;;;;;;1.10;0.80;;;20.30;68.00;;;;;;5020557;28;20640;-59
2023/04/13 05:05:10;;;;;;;0.90;0.70;;;20.30;68.10;;;;;;5011986;28;20192;-64
2023/04/13 05:07:37;;;;;;;1.27;1.00;;;20.30;68.10;;;;;;5012458;28;20220;-61
2023/04/13 05:10:07;;;;;;;1.10;0.90;;;20.30;68.10;;;;;;5012376;28;20275;-59
2023/04/13 05:12:33;;;;;;;0.98;0.80;;;20.30;68.10;;;;;;5018208;28;20220;-63
2023/04/13 05:15:00;;;;;;;1.10;0.82;;;20.30;68.00;;;;;;5019638;28;20200;-57
2023/04/13 05:17:27;;;;;;;1.00;0.70;;;20.30;68.00;;;;;;5020410;28;20230;-55
2023/04/13 05:19:54;;;;;;;1.50;0.85;;;20.40;68.10;;;;;;5017074;28;20204;-64
2023/04/13 05:22:21;;;;;;;0.88;0.65;;;20.40;67.90;;;;;;5020956;28;20274;-62
2023/04/13 05:24:47;;;;;;;0.80;0.60;;;20.40;67.90;;;;;;5015303;28;20250;-65
2023/04/13 05:27:16;;;;;;;1.73;0.90;;;20.40;67.90;;;;;;5018162;28;20254;-58
2023/04/13 05:29:43;;;;;;;1.00;0.80;;;20.40;67.80;;;;;;5006407;28;20201;-59
2023/04/13 05:32:09;;;;;;;1.48;0.85;;;20.40;67.80;;;;;;5014193;28;20196;-64
2023/04/13 05:34:37;;;;;;;0.90;0.70;;;20.40;67.80;;;;;;5017693;28;20207;-61
2023/04/13 05:37:04;;;;;;;0.80;0.60;;;20.40;67.80;;;;;;5013955;28;20200;-64
2023/04/13 05:39:30;;;;;;;1.80;0.68;;;20.40;67.80;;;;;;5015513;28;20195;-63
2023/04/13 05:41:57;;;;;;;1.05;0.73;;;20.50;67.80;;;;;;5017914;28;20192;-64
2023/04/13 05:44:25;;;;;;;1.02;0.70;;;20.40;67.70;;;;;;5003880;28;20216;-63
2023/04/13 05:46:52;;;;;;;1.08;0.77;;;20.50;67.70;;;;;;5011209;28;20290;-65
2023/04/13 05:49:18;;;;;;;1.15;0.80;;;20.50;67.80;;;;;;5011456;28;20196;-62
2023/04/13 05:51:46;;;;;;;0.90;0.65;;;20.50;67.80;;;;;;5008829;28;20239;-64
2023/04/13 05:54:13;;;;;;;1.00;0.70;;;20.50;67.80;;;;;;5018659;28;20207;-64
2023/04/13 05:56:40;;;;;;;1.00;0.68;;;20.50;67.80;;;;;;5012525;28;20299;-62
2023/04/13 05:59:06;;;;;;;0.93;0.60;;;20.50;67.60;;;;;;5004542;28;20205;-60
2023/04/13 06:01:35;;;;;;;1.00;0.70;;;20.50;67.60;;;;;;5015728;28;20201;-62
2023/04/13 06:04:02;;;;;;;1.20;0.80;;;20.50;67.60;;;;;;5005433;28;20649;-59
2023/04/13 06:06:29;;;;;;;1.00;0.60;;;20.50;67.60;;;;;;5004866;28;20954;-60
2023/04/13 06:08:55;;;;;;;0.90;0.70;;;20.60;67.70;;;;;;5013533;28;20652;-61
2023/04/13 06:11:23;;;;;;;1.00;0.75;;;20.60;67.70;;;;;;5017931;28;20767;-62
2023/04/13 06:13:50;;;;;;;0.90;0.70;;;20.60;67.60;;;;;;5008161;28;20201;-63
2023/04/13 06:16:17;;;;;;;0.90;0.60;;;20.60;67.60;;;;;;5012370;28;20243;-61
2023/04/13 06:18:45;;;;;;;0.95;0.70;;;20.60;67.60;;;;;;5011989;28;20227;-62
2023/04/13 06:21:12;;;;;;;1.20;0.80;;;20.60;67.60;;;;;;5010226;28;20204;-61
2023/04/13 06:23:39;;;;;;;1.33;0.73;;;20.70;67.70;;;;;;5007543;28;20200;-60
2023/04/13 06:26:06;;;;;;;1.45;0.75;;;20.70;67.60;;;;;;5014545;28;20203;-62
2023/04/13 06:28:33;;;;;;;1.00;0.70;;;20.70;67.60;;;;;;5014329;28;20224;-56
2023/04/13 06:31:00;;;;;;;1.42;0.77;;;20.70;67.60;;;;;;4998716;28;20303;-61
2023/04/13 06:33:27;;;;;;;0.80;0.60;;;20.70;67.50;;;;;;5009649;28;20200;-64
2023/04/13 06:35:55;;;;;;;0.77;0.60;;;20.70;67.50;;;;;;5011947;28;20235;-62
2023/04/13 06:38:22;;;;;;;0.90;0.60;;;20.70;67.50;;;;;;5005427;28;20213;-58
2023/04/13 06:40:48;;;;;;;1.00;0.77;;;20.70;67.50;;;;;;5010541;28;20653;-62
2023/04/13 06:43:15;;;;;;;1.17;0.80;;;20.80;67.60;;;;;;5015941;28;20660;-58
2023/04/13 06:45:42;;;;;;;0.90;0.70;;;20.80;67.50;;;;;;5022204;28;20210;-60
2023/04/13 06:48:10;;;;;;;1.00;0.80;;;20.80;67.50;;;;;;5016939;28;20220;-55
2023/04/13 06:50:37;;;;;;;1.02;0.93;;;20.80;67.50;;;;;;5013513;28;20239;-62
2023/04/13 06:53:05;;;;;;;1.05;0.82;;;20.80;67.30;;;;;;5015853;28;20195;-55
2023/04/13 06:55:32;;;;;;;1.00;0.75;;;20.80;67.30;;;;;;5012846;28;20197;-58
2023/04/13 06:57:59;;;;;;;1.33;0.82;;;20.80;67.50;;;;;;5024594;28;20193;-62
2023/04/13 07:00:26;;;;;;;1.10;0.70;;;20.80;67.90;;;;;;5020724;28;20611;-60
2023/04/13 07:02:52;;;;;;;1.00;0.70;;;20.80;67.90;;;;;;5015884;28;20201;-62
2023/04/13 07:05:19;;;;;;;1.10;0.70;;;20.90;68.10;;;;;;5015783;28;20243;-62
2023/04/13 07:07:46;;;;;;;1.10;0.80;;;20.90;67.90;;;;;;5018165;28;20227;-58
2023/04/13 07:10:14;;;;;;;1.02;0.70;;;20.90;67.90;;;;;;5015341;28;20200;-63
2023/04/13 07:12:41;;;;;;;1.52;1.00;;;20.90;67.90;;;;;;5023217;28;20207;-61
2023/04/13 07:15:09;;;;;;;1.00;0.70;;;20.90;68.20;;;;;;5013985;28;20196;-55
2023/04/13 07:17:36;;;;;;;1.10;0.70;;;20.90;68.30;;;;;;5019120;28;20283;-61
2023/04/13 07:20:03;;;;;;;0.90;0.70;;;20.90;68.20;;;;;;5015004;28;20248;-58
2023/04/13 07:22:32;;;;;;;1.10;0.70;;;20.90;68.30;;;;;;5010559;28;20221;-58
2023/04/13 07:24:59;;;;;;;1.10;0.88;;;20.90;68.30;;;;;;5006603;28;20354;-60
2023/04/13 07:27:27;;;;;;;1.80;0.80;;;21.00;68.60;;;;;;5015999;28;20221;-61
2023/04/13 07:29:55;;;;;;;2.00;0.98;;;21.00;68.70;;;;;;5014868;28;20201;-59
2023/04/13 07:32:22;;;;;;;1.77;0.90;;;21.00;68.70;;;;;;5016327;28;20228;-60
2023/04/13 07:34:49;;;;;;;1.25;0.80;;;21.00;68.80;;;;;;5013614;28;20603;-65
2023/04/13 07:37:15;;;;;;;1.55;0.77;;;21.00;68.90;;;;;;5011806;28;20604;-61
2023/04/13 07:39:43;;;;;;;0.95;0.70;;;21.00;68.90;;;;;;5012735;28;20322;-62
2023/04/13 07:42:09;;;;;;;5.05;0.70;;;21.00;69.00;;;;;;5014399;28;20201;-61
2023/04/13 07:44:37;;;;;;;4.13;1.77;;;21.00;69.30;;;;;;5013408;28;20196;-63
2023/04/13 07:47:04;;;;;;;3.05;1.20;;;21.00;69.10;;;;;;5019342;28;20542;-56
2023/04/13 07:49:31;;;;;;;3.45;0.80;;;21.00;69.00;;;;;;5012911;28;20188;-62
2023/04/13 07:51:58;;;;;;;4.40;0.70;;;21.00;67.90;;;;;;5005824;28;20255;-62
2023/04/13 07:54:25;;;;;;;2.22;1.02;;;21.00;67.80;;;;;;5014314;28;20278;-59
2023/04/13 07:56:51;;;;;;;1.50;0.88;;;21.00;67.80;;;;;;5010755;28;20196;-60
2023/04/13 07:59:18;;;;;;;2.75;0.80;;;21.00;67.60;;;;;;5002203;28;20205;-59
2023/04/13 08:01:46;;;;;;;2.65;0.80;;;21.00;68.60;;;;;;5011236;28;20394;-61
2023/04/13 08:04:13;;;;;;;2.85;0.90;;;21.00;67.70;;;;;;5020131;28;20200;-62
2023/04/13 08:06:39;;;;;;;2.55;0.82;;;21.00;67.90;;;;;;5004915;28;20211;-58
2023/04/13 08:09:06;;;;;;;1.10;0.77;;;21.00;67.90;;;;;;5009950;28;21513;-61
2023/04/13 08:11:33;;;;;;;1.10;0.80;;;21.00;67.80;;;;;;5016089;28;20543;-62
2023/04/13 08:14:00;;;;;;;0.90;0.70;;;21.00;67.80;;;;;;5008732;28;20566;-59
2023/04/13 08:16:32;;;;;;;1.55;0.80;;;21.10;67.90;;;;;;5014256;28;20196;-61
2023/04/13 08:19:01;;;;;;;1.92;1.00;;;21.10;67.80;;;;;;5012690;28;20196;-61
2023/04/13 08:21:28;;;;;;;1.17;0.70;;;21.10;67.80;;;;;;5012971;28;20275;-60
2023/04/13 08:23:55;;;;;;;1.45;0.70;;;21.10;67.80;;;;;;5004563;28;20591;-61
2023/04/13 08:26:22;;;;;;;4.32;0.90;;;21.10;67.80;;;;;;5011486;28;20205;-61
2023/04/13 08:28:49;;;;;;;2.85;0.80;;;21.10;67.80;;;;;;5010205;28;20220;-58
2023/04/13 08:31:16;;;;;;;1.50;0.80;;;21.10;67.80;;;;;;5016887;28;20206;-58
2023/04/13 08:33:43;;;;;;;1.20;0.75;;;21.10;67.90;;;;;;5017225;28;20279;-59
2023/04/13 08:36:11;;;;;;;2.33;0.90;;;21.10;68.00;;;;;;5012331;28;20680;-57
2023/04/13 08:38:38;;;;;;;2.67;1.13;;;21.20;68.40;;;;;;5010072;28;20422;-55
2023/04/13 08:41:05;;;;;;;6.73;0.73;;;21.20;68.30;;;;;;5015768;28;20458;-54
2023/04/13 08:43:34;;;;;;;1.63;0.73;;;21.10;68.20;;;;;;5024933;28;20464;-56
2023/04/13 08:46:01;;;;;;;4.50;0.70;;;21.10;68.40;;;;;;5018579;28;20207;-54
2023/04/13 08:48:28;;;;;;;1.25;0.90;;;21.10;68.40;;;;;;5018049;28;20488;-57
2023/04/13 08:50:57;;;;;;;1.23;0.80;;;21.10;68.50;;;;;;5014869;28;20681;-53
2023/04/13 08:53:25;;;;;;;2.85;0.80;;;21.10;68.50;;;;;;5012362;28;20199;-54
2023/04/13 08:55:54;;;;;;;5.18;0.73;;;21.10;68.50;;;;;;5022126;28;20653;-53
2023/04/13 08:58:23;;;;;;;1.20;0.70;;;21.20;68.60;;;;;;5008652;28;20224;-56
2023/04/13 09:00:50;;;;;;;1.00;0.68;;;21.20;68.60;;;;;;5019909;28;20201;-55
2023/04/13 09:03:23;;;;;;;1.95;1.00;;;21.20;68.60;;;;;;5016242;28;20659;-56
2023/04/13 09:05:56;;;;;;;1.67;0.70;;;21.20;68.60;;;;;;5027236;28;20290;-55
2023/04/13 09:08:24;;;;;;;1.00;0.77;;;21.20;68.60;;;;;;5020167;28;20225;-57
2023/04/13 09:10:51;;;;;;;3.08;0.80;;;21.20;68.60;;;;;;5014979;28;20674;-58
2023/04/13 09:13:18;;;;;;;1.40;0.70;;;21.20;68.70;;;;;;5014318;28;20203;-53
2023/04/13 09:15:46;;;;;;;1.08;0.70;;;21.20;68.70;;;;;;5024095;28;20254;-53
2023/04/13 09:18:14;;;;;;;1.75;0.70;;;21.20;68.70;;;;;;5016304;28;20208;-56
2023/04/13 09:20:41;;;;;;;1.77;0.80;;;21.20;68.60;;;;;;5015644;28;20200;-54
2023/04/13 09:23:17;;;;;;;1.25;0.70;;;21.20;68.70;;;;;;5016733;28;20232;-58
2023/04/13 09:25:45;;;;;;;1.23;0.80;;;21.20;68.60;;;;;;5014075;28;20207;-57
2023/04/13 09:28:18;;;;;;;4.60;1.15;;;21.20;68.70;;;;;;5011141;28;20244;-57
2023/04/13 09:30:45;;;;;;;2.17;0.80;;;21.20;68.60;;;;;;5009056;28;20608;-58
2023/04/13 09:33:14;;;;;;;4.75;0.80;;;21.20;68.60;;;;;;5019808;28;20631;-53
2023/04/13 09:35:41;;;;;;;2.25;0.80;;;21.20;68.60;;;;;;5016860;28;20557;-53
2023/04/13 09:38:10;;;;;;;1.30;0.80;;;21.20;68.60;;;;;;5012534;28;20209;-56
2023/04/13 09:40:47;;;;;;;1.05;0.68;;;21.20;68.60;;;;;;5015426;28;20556;-57
2023/04/13 09:43:15;;;;;;;1.35;1.08;;;21.20;68.60;;;;;;5015897;28;20216;-57
2023/04/13 09:45:44;;;;;;;1.30;0.80;;;21.20;68.60;;;;;;5013922;28;20677;-56
2023/04/13 09:48:19;;;;;;;1.48;0.90;;;21.20;68.70;;;;;;5016113;28;20217;-57
2023/04/13 09:50:46;;;;;;;2.40;0.88;;;21.20;68.60;;;;;;5015706;28;20282;-56
2023/04/13 09:53:12;;;;;;;1.00;0.60;;;21.20;68.60;;;;;;5013061;28;20208;-58
2023/04/13 09:55:39;;;;;;;2.72;0.90;;;21.20;68.60;;;;;;5019339;28;20192;-57
2023/04/13 09:58:10;;;;;;;1.77;0.80;;;21.20;68.60;;;;;;5023323;28;20240;-57
2023/04/13 10:00:41;;;;;;;0.93;0.70;;;21.20;68.70;;;;;;5015669;28;20393;-57
2023/04/13 10:03:11;;;;;;;1.10;0.70;;;21.20;68.60;;;;;;5017584;28;20871;-61
2023/04/13 10:05:38;;;;;;;2.55;0.98;;;21.30;68.80;;;;;;5013581;28;20203;-61
2023/04/13 10:08:06;;;;;;;2.60;0.90;;;21.30;68.70;;;;;;5017570;28;20692;-64
2023/04/13 10:10:32;;;;;;;1.80;0.90;;;21.30;68.70;;;;;;5012485;28;20192;-64
2023/04/13 10:13:05;;;;;;;3.33;1.10;;;21.40;68.80;;;;;;5020038;28;20196;-61
2023/04/13 10:15:43;;;;;;;3.47;0.80;;;21.30;68.70;;;;;;5008575;28;20452;-59
2023/04/13 10:18:22;;;;;;;2.47;0.80;;;21.40;68.90;;;;;;5016868;28;20205;-53
2023/04/13 10:20:51;;;;;;;1.55;0.90;;;21.40;68.70;;;;;;5016844;28;20632;-50
2023/04/13 10:23:18;;;;;;;0.90;0.60;;;21.40;68.70;;;;;;5022691;28;20687;-56
2023/04/13 10:25:50;;;;;;;1.17;0.70;;;21.40;68.70;;;;;;5018506;28;20203;-58
2023/04/13 10:28:17;;;;;;;2.20;1.00;;;21.40;68.70;;;;;;5012541;28;20482;-55
2023/04/13 10:30:50;;;;;;;1.00;0.70;;;21.50;69.60;;;;;;5015623;28;20459;-53
2023/04/13 10:33:18;;;;;;;2.07;0.77;;;21.50;68.80;;;;;;5018773;28;20212;-50
2023/04/13 10:35:55;;;;;;;2.50;0.80;;;21.50;68.80;;;;;;5024475;28;21053;-49
2023/04/13 10:38:22;;;;;;;3.73;0.90;;;21.50;68.80;;;;;;5013674;28;20462;-54
2023/04/13 10:40:50;;;;;;;1.03;0.77;;;21.50;68.80;;;;;;5013881;28;20464;-55
2023/04/13 10:43:26;;;;;;;2.47;0.90;;;21.60;68.90;;;;;;5009097;28;20520;-54
2023/04/13 10:46:06;;;;;;;1.03;0.80;;;21.60;68.90;;;;;;5016120;28;20258;-55
2023/04/13 10:48:33;;;;;;;1.30;0.70;;;21.60;68.90;;;;;;5021503;28;20529;-52
2023/04/13 10:51:00;;;;;;;0.90;0.67;;;21.60;68.90;;;;;;5015510;28;20471;-54
2023/04/13 10:53:29;;;;;;;1.10;0.82;;;21.60;68.90;;;;;;5009583;28;20772;-50
2023/04/13 10:55:56;;;;;;;2.30;0.60;;;21.70;69.00;;;;;;5018499;28;20243;-51
2023/04/13 10:58:23;;;;;;;1.40;0.80;;;21.70;69.00;;;;;;5014742;28;20458;-49
2023/04/13 11:00:51;;;;;;;1.88;0.73;;;21.70;69.00;;;;;;5015900;28;20969;-54
2023/04/13 11:03:19;;;;;;;1.00;0.90;;;21.70;69.10;;;;;;5018580;28;20287;-58
2023/04/13 11:05:46;;;;;;;1.23;0.70;;;21.80;69.30;;;;;;5025267;28;20840;-62
2023/04/13 11:08:17;;;;;;;1.45;0.70;;;21.80;70.00;;;;;;5014452;28;20570;-61
2023/04/13 11:10:50;;;;;;;2.10;0.90;;;21.80;69.30;;;;;;5009681;28;20625;-62
2023/04/13 11:13:17;;;;;;;2.87;0.90;;;21.80;69.20;;;;;;5008334;28;20455;-62
2023/04/13 11:15:44;;;;;;;2.50;0.77;;;21.80;69.20;;;;;;5023460;28;20479;-57
2023/04/13 11:18:11;;;;;;;1.00;0.77;;;21.80;69.20;;;;;;5023195;28;20472;-55
2023/04/13 11:20:40;;;;;;;1.00;0.70;;;21.90;69.30;;;;;;5009042;28;20452;-53
2023/04/13 11:23:14;;;;;;;3.27;0.90;;;21.80;69.20;;;;;;5019767;28;20494;-56
2023/04/13 11:25:51;;;;;;;1.00;0.73;;;21.90;69.30;;;;;;5010132;28;21071;-55
2023/04/13 11:28:18;;;;;;;1.48;0.80;;;21.90;69.30;;;;;;5007469;28;20515;-53
2023/04/13 11:30:52;;;;;;;0.90;0.70;;;21.90;69.20;;;;;;5020925;28;20317;-64
2023/04/13 11:33:24;;;;;;;1.03;0.70;;;21.90;69.20;;;;;;5025702;28;20549;-65
2023/04/13 11:35:53;;;;;;;1.10;0.70;;;21.90;69.30;;;;;;5017203;28;20549;-65
2023/04/13 11:38:20;;;;;;;1.10;0.70;;;21.90;69.20;;;;;;5018840;28;20464;-54
2023/04/13 11:40:47;;;;;;;1.20;0.80;;;21.90;69.20;;;;;;5011753;28;20545;-61
2023/04/13 11:43:15;;;;;;;1.13;0.70;;;21.90;69.20;;;;;;5022883;28;20463;-55
2023/04/13 11:45:43;;;;;;;1.20;0.70;;;22.00;69.50;;;;;;5009561;28;20549;-58
2023/04/13 11:48:12;;;;;;;1.67;0.70;;;22.00;69.40;;;;;;5012305;28;20555;-50
2023/04/13 11:50:40;;;;;;;1.73;0.90;;;22.00;69.40;;;;;;5011524;28;20475;-57
2023/04/13 11:53:09;;;;;;;1.30;0.80;;;22.00;69.60;;;;;;5007179;28;20842;-61
2023/04/13 11:55:36;;;;;;;2.70;0.70;;;22.10;69.60;;;;;;5015169;28;20821;-53
2023/04/13 11:58:08;;;;;;;3.93;0.80;;;22.10;69.60;;;;;;5015111;28;20448;-54
2023/04/13 12:00:38;;;;;;;2.40;1.20;;;22.00;69.50;;;;;;5017841;28;20547;-59
2023/04/13 12:03:11;;;;;;;0.80;0.60;;;22.10;69.60;;;;;;5026399;28;20815;-65
2023/04/13 12:05:38;;;;;;;1.20;0.70;;;22.10;69.50;;;;;;5012179;28;20987;-54
2023/04/13 12:08:09;;;;;;;0.93;0.60;;;22.20;69.70;;;;;;5018206;28;20863;-56
2023/04/13 12:10:36;;;;;;;4.60;1.10;;;22.10;69.40;;;;;;5011782;28;20463;-65
2023/04/13 12:13:08;;;;;;;2.20;1.10;;;22.20;69.60;;;;;;5008240;28;20901;-63
2023/04/13 12:15:36;;;;;;;2.00;1.20;;;22.20;69.50;;;;;;5005667;28;20462;-60
2023/04/13 12:18:04;;;;;;;1.23;0.77;;;22.20;69.50;;;;;;5014591;28;20467;-61
2023/04/13 12:20:36;;;;;;;1.20;0.67;;;22.20;69.50;;;;;;5018305;28;20470;-59
2023/04/13 12:23:03;;;;;;;4.30;0.90;;;22.20;69.60;;;;;;5009981;28;20578;-57
2023/04/13 12:25:32;;;;;;;2.23;0.70;;;22.20;69.70;;;;;;5014487;28;20519;-60
2023/04/13 12:27:58;;;;;;;1.80;0.80;;;22.20;69.70;;;;;;5023093;28;20466;-57
2023/04/13 12:30:26;;;;;;;2.30;0.80;;;22.20;69.80;;;;;;5017183;28;21005;-57
2023/04/13 12:32:54;;;;;;;4.00;0.80;;;22.20;69.70;;;;;;5016881;28;20546;-57
2023/04/13 12:35:21;;;;;;;2.50;0.80;;;22.20;69.70;;;;;;5020532;28;20476;-50
2023/04/13 12:37:49;;;;;;;1.40;0.70;;;22.20;69.80;;;;;;5021100;28;20537;-56
2023/04/13 12:40:18;;;;;;;1.80;0.80;;;22.20;69.80;;;;;;5018812;28;20540;-54
2023/04/13 12:42:46;;;;;;;3.87;0.80;;;22.20;69.90;;;;;;5022727;28;20463;-62
2023/04/13 12:45:15;;;;;;;9.17;1.50;;;22.20;69.90;;;;;;5017100;28;20852;-60
2023/04/13 12:47:41;;;;;;;7.37;1.10;;;22.30;70.20;;;;;;5018532;28;20454;-56
2023/04/13 12:50:10;;;;;;;6.53;1.30;;;22.20;70.00;;;;;;5019270;28;21030;-61
2023/04/13 12:52:39;;;;;;;4.00;0.90;;;22.30;70.10;;;;;;5022578;28;20468;-58